Anderson, Nebraska
Current Conditions -  °F | °C
As of 4:35 AM on Thursday 27 Nov 2014 (Local Time) from KHDE Reporting Station
Scattered Clouds Scattered Clouds  
Wind Chill: 10°   Ceiling: Unl
Heat Index: 20°   Visibility: 10mi
Dew Point: 15°   Wind: 8mph
Humidity: 83%   Direction: 180°S
Pressure: 30.37"   Gusts: NA
Location:  40.5251°N, 99.2414°W
Report Text: KHDE 271035Z AUTO 18007KT 10SM SCT090 M07/M09 A3037 RMK AO2 T10671092
Loading
Personal Weather Stations






























Interactive Weather Map New forecast layout! Learn more

10-Day Weather Forecast

Advertisements
Track Severe Weather on mobile